Time;durP1;ratioP1;P1;durP2;ratioP2;P2;SDS_P1;SDS_P2;PMS_P1;PMS_P2;Temp;Humidity;BMP_temperature;BMP_pressure;BME280_temperature;BME280_humidity;BME280_pressure;Samples;Min_cycle;Max_cycle;Signal;HPM_P1;HPM_P2
2022/03/15 00:00:32;;;;;;;13.43;8.15;;;;;;;;;;4961936;29;20035;-76
2022/03/15 00:02:58;;;;;;;11.27;7.80;;;;;;;;;;4943619;29;20555;-76
2022/03/15 00:05:27;;;;;;;14.23;8.05;;;;;;;;;;4960420;29;20086;-76
2022/03/15 00:07:53;;;;;;;16.48;9.20;;;;;;;;;;4955326;29;20396;-77
2022/03/15 00:10:20;;;;;;;16.42;9.13;;;;;;;;;;4960800;29;20031;-76
2022/03/15 00:12:47;;;;;;;14.60;8.93;;;;;;;;;;4957210;29;20027;-76
2022/03/15 00:15:13;;;;;;;14.07;9.07;;;;;;;;;;4961093;29;20050;-78
2022/03/15 00:17:41;;;;;;;15.30;8.82;;;;;;;;;;4959872;29;20027;-77
2022/03/15 00:20:08;;;;;;;18.67;10.70;;;;;;;;;;4958800;29;20035;-77
2022/03/15 00:22:37;;;;;;;19.58;11.02;;;;;;;;;;4954914;29;20064;-77
2022/03/15 00:25:09;;;;;;;19.73;11.02;;;;;;;;;;4956608;29;20035;-76
2022/03/15 00:27:36;;;;;;;20.83;11.63;;;;;;;;;;4958741;29;20107;-77
2022/03/15 00:30:03;;;;;;;17.73;10.80;;;;;;;;;;4963656;29;20047;-78
2022/03/15 00:32:31;;;;;;;18.60;10.50;;;;;;;;;;4952939;29;20385;-76
2022/03/15 00:34:57;;;;;;;16.85;10.60;;;;;;;;;;4957964;29;20145;-76
2022/03/15 00:37:23;;;;;;;17.95;11.40;;;;;;;;;;4938180;29;20035;-77
2022/03/15 00:39:53;;;;;;;39.38;20.65;;;;;;;;;;4955910;29;20027;-76
2022/03/15 00:42:19;;;;;;;35.55;20.85;;;;;;;;;;4960154;29;21472;-77
2022/03/15 00:44:46;;;;;;;18.95;10.45;;;;;;;;;;4958850;29;20121;-76
2022/03/15 00:47:12;;;;;;;22.30;13.65;;;;;;;;;;4941264;29;20062;-77
2022/03/15 00:49:38;;;;;;;22.48;12.48;;;;;;;;;;4961718;29;20026;-77
2022/03/15 00:52:07;;;;;;;20.73;10.98;;;;;;;;;;4957472;28;20064;-77
2022/03/15 00:54:33;;;;;;;20.70;12.40;;;;;;;;;;4951502;29;20510;-76
2022/03/15 00:56:59;;;;;;;22.08;11.35;;;;;;;;;;4943838;29;20093;-76
2022/03/15 00:59:25;;;;;;;20.23;11.82;;;;;;;;;;4958689;29;20039;-77
2022/03/15 01:01:51;;;;;;;65.10;29.95;;;;;;;;;;4958476;29;20024;-77
2022/03/15 01:04:25;;;;;;;25.23;13.15;;;;;;;;;;4958959;29;20051;-76
2022/03/15 01:06:52;;;;;;;29.70;15.23;;;;;;;;;;4941442;29;20106;-77
2022/03/15 01:09:18;;;;;;;18.13;10.93;;;;;;;;;;4959457;29;20030;-78
2022/03/15 01:11:44;;;;;;;20.30;12.13;;;;;;;;;;4959785;29;20047;-76
2022/03/15 01:14:10;;;;;;;17.00;10.90;;;;;;;;;;4956107;29;20102;-77
2022/03/15 01:16:36;;;;;;;15.88;9.25;;;;;;;;;;4946892;29;20079;-76
2022/03/15 01:19:02;;;;;;;17.45;9.60;;;;;;;;;;4958409;29;20039;-78
2022/03/15 01:21:29;;;;;;;15.50;9.45;;;;;;;;;;4941863;29;20031;-77
2022/03/15 01:23:55;;;;;;;16.65;10.10;;;;;;;;;;4955959;29;20034;-75
2022/03/15 01:26:21;;;;;;;18.55;10.25;;;;;;;;;;4949974;29;20027;-76
2022/03/15 01:28:49;;;;;;;17.85;10.88;;;;;;;;;;4950682;29;20220;-76
2022/03/15 01:31:15;;;;;;;20.25;11.30;;;;;;;;;;4958401;29;20019;-77
2022/03/15 01:33:41;;;;;;;38.78;18.25;;;;;;;;;;4959377;29;20495;-77
2022/03/15 01:36:07;;;;;;;40.13;17.08;;;;;;;;;;4957956;29;20523;-76
2022/03/15 01:38:35;;;;;;;46.00;19.50;;;;;;;;;;4941373;29;20043;-78
2022/03/15 01:41:01;;;;;;;45.63;20.15;;;;;;;;;;4957680;29;20027;-76
2022/03/15 01:43:27;;;;;;;27.95;14.10;;;;;;;;;;4958643;29;20037;-77
2022/03/15 01:45:56;;;;;;;40.58;18.80;;;;;;;;;;4958055;29;20485;-76
2022/03/15 01:48:22;;;;;;;20.90;11.45;;;;;;;;;;4950802;29;20412;-76
2022/03/15 01:50:48;;;;;;;18.83;11.15;;;;;;;;;;4942020;29;20034;-76
2022/03/15 01:53:15;;;;;;;19.13;10.30;;;;;;;;;;4959904;29;20035;-76
2022/03/15 01:55:41;;;;;;;18.48;10.05;;;;;;;;;;4943132;29;20038;-76
2022/03/15 01:58:08;;;;;;;17.65;9.43;;;;;;;;;;4950789;29;20048;-76
2022/03/15 02:00:34;;;;;;;18.15;10.50;;;;;;;;;;4958625;29;20555;-76
2022/03/15 02:03:01;;;;;;;17.90;10.18;;;;;;;;;;4959612;29;20058;-78
2022/03/15 02:05:27;;;;;;;18.92;10.20;;;;;;;;;;4957248;29;20034;-77
2022/03/15 02:07:54;;;;;;;17.48;10.32;;;;;;;;;;4940831;29;20842;-76
2022/03/15 02:10:20;;;;;;;20.02;10.73;;;;;;;;;;4953363;29;20083;-76
2022/03/15 02:12:46;;;;;;;19.17;11.68;;;;;;;;;;4958218;29;20023;-78
2022/03/15 02:15:12;;;;;;;17.02;10.32;;;;;;;;;;4955141;29;20065;-76
2022/03/15 02:17:38;;;;;;;19.77;11.25;;;;;;;;;;4955696;28;20027;-77
2022/03/15 02:20:09;;;;;;;17.67;11.05;;;;;;;;;;4939998;29;20086;-77
2022/03/15 02:22:36;;;;;;;16.90;9.93;;;;;;;;;;4959225;29;20118;-76
2022/03/15 02:25:02;;;;;;;15.30;8.80;;;;;;;;;;4960040;29;20031;-78
2022/03/15 02:27:28;;;;;;;14.65;10.05;;;;;;;;;;4948534;29;20042;-76
2022/03/15 02:29:54;;;;;;;14.95;9.60;;;;;;;;;;4956848;29;20480;-77
2022/03/15 02:32:22;;;;;;;13.10;6.80;;;;;;;;;;4950250;29;20038;-78
2022/03/15 02:34:52;;;;;;;15.80;7.72;;;;;;;;;;4957488;29;20476;-77
2022/03/15 02:37:18;;;;;;;14.10;8.30;;;;;;;;;;4958682;29;20498;-76
2022/03/15 02:39:44;;;;;;;12.82;8.07;;;;;;;;;;4955928;29;20041;-76
2022/03/15 02:42:16;;;;;;;13.75;8.02;;;;;;;;;;4961936;28;20050;-77
2022/03/15 02:44:42;;;;;;;11.95;7.68;;;;;;;;;;4939341;29;20563;-77
2022/03/15 02:47:10;;;;;;;12.75;8.75;;;;;;;;;;4939228;29;20039;-77
2022/03/15 02:49:38;;;;;;;13.85;8.70;;;;;;;;;;4957306;29;20453;-76
2022/03/15 02:52:05;;;;;;;16.58;9.02;;;;;;;;;;4940429;29;20497;-76
2022/03/15 02:54:31;;;;;;;15.82;8.88;;;;;;;;;;4956425;29;20023;-75
2022/03/15 02:56:57;;;;;;;16.80;9.30;;;;;;;;;;4969754;28;20121;-76
2022/03/15 02:59:23;;;;;;;13.75;9.10;;;;;;;;;;4956358;29;20043;-77
2022/03/15 03:01:50;;;;;;;17.77;8.85;;;;;;;;;;4956037;29;20023;-76
2022/03/15 03:04:21;;;;;;;15.93;8.70;;;;;;;;;;4950136;29;20038;-76
2022/03/15 03:06:47;;;;;;;15.32;8.60;;;;;;;;;;4957546;29;20024;-77
2022/03/15 03:09:16;;;;;;;13.70;8.98;;;;;;;;;;4953377;29;20040;-76
2022/03/15 03:11:42;;;;;;;16.55;8.82;;;;;;;;;;4951825;29;20027;-76
2022/03/15 03:14:13;;;;;;;17.75;9.80;;;;;;;;;;4955363;29;20027;-76
2022/03/15 03:16:40;;;;;;;15.55;9.80;;;;;;;;;;4938358;29;20023;-76
2022/03/15 03:19:09;;;;;;;20.88;9.90;;;;;;;;;;4955094;29;20047;-77
2022/03/15 03:21:36;;;;;;;18.35;10.48;;;;;;;;;;4936740;29;20024;-76
2022/03/15 03:24:06;;;;;;;18.30;11.32;;;;;;;;;;4951889;29;20034;-76
2022/03/15 03:26:34;;;;;;;15.38;8.40;;;;;;;;;;4948530;28;20060;-76
2022/03/15 03:29:02;;;;;;;12.52;8.13;;;;;;;;;;4951169;29;20035;-76
2022/03/15 03:31:30;;;;;;;12.73;8.50;;;;;;;;;;4962310;29;20492;-77
2022/03/15 03:33:56;;;;;;;14.25;8.35;;;;;;;;;;4958284;29;20027;-77
2022/03/15 03:36:24;;;;;;;12.90;9.25;;;;;;;;;;4941995;29;20049;-76
2022/03/15 03:38:50;;;;;;;11.93;7.60;;;;;;;;;;4960239;29;20039;-76
2022/03/15 03:41:16;;;;;;;12.30;6.32;;;;;;;;;;4959966;29;20106;-77
2022/03/15 03:43:42;;;;;;;11.50;6.20;;;;;;;;;;4960100;29;20034;-76
2022/03/15 03:46:08;;;;;;;13.35;6.53;;;;;;;;;;4952331;29;20020;-76
2022/03/15 03:48:34;;;;;;;12.52;6.88;;;;;;;;;;4953625;29;20055;-76
2022/03/15 03:51:01;;;;;;;9.60;6.75;;;;;;;;;;4951621;28;20039;-78
2022/03/15 03:53:27;;;;;;;11.88;7.20;;;;;;;;;;4959322;29;20355;-78
2022/03/15 03:55:53;;;;;;;12.23;6.72;;;;;;;;;;4956158;29;20031;-76
2022/03/15 03:58:19;;;;;;;9.32;6.25;;;;;;;;;;4952877;29;20588;-76
2022/03/15 04:00:45;;;;;;;10.57;6.03;;;;;;;;;;4955334;29;20047;-76
2022/03/15 04:03:16;;;;;;;10.55;6.03;;;;;;;;;;4951819;29;20027;-76
2022/03/15 04:05:47;;;;;;;8.57;5.85;;;;;;;;;;4934024;29;20529;-77
2022/03/15 04:08:14;;;;;;;9.40;5.85;;;;;;;;;;4943725;29;20041;-76
2022/03/15 04:10:46;;;;;;;10.15;6.38;;;;;;;;;;4955622;28;20039;-76
2022/03/15 04:13:18;;;;;;;11.70;6.10;;;;;;;;;;4956721;29;20086;-76
2022/03/15 04:15:49;;;;;;;11.48;6.13;;;;;;;;;;4941320;29;20054;-77
2022/03/15 04:18:18;;;;;;;8.75;5.82;;;;;;;;;;4953461;29;20057;-76
2022/03/15 04:20:46;;;;;;;8.65;5.53;;;;;;;;;;4962836;29;20082;-75
2022/03/15 04:23:13;;;;;;;10.43;5.45;;;;;;;;;;4958486;29;20148;-74
2022/03/15 04:25:39;;;;;;;8.05;5.47;;;;;;;;;;4947829;29;20024;-76
2022/03/15 04:28:06;;;;;;;9.38;5.93;;;;;;;;;;4959909;29;20027;-75
2022/03/15 04:30:32;;;;;;;12.10;5.65;;;;;;;;;;4957908;29;20031;-77
2022/03/15 04:33:01;;;;;;;7.80;5.18;;;;;;;;;;4952388;29;20477;-77
2022/03/15 04:35:28;;;;;;;9.65;5.60;;;;;;;;;;4957249;29;20130;-77
2022/03/15 04:37:54;;;;;;;7.72;5.70;;;;;;;;;;4956589;29;20034;-75
2022/03/15 04:40:21;;;;;;;11.05;5.93;;;;;;;;;;4957742;28;20105;-77
2022/03/15 04:42:48;;;;;;;10.50;6.03;;;;;;;;;;4952822;29;20030;-75
2022/03/15 04:45:15;;;;;;;11.77;5.65;;;;;;;;;;4958252;29;20031;-76
2022/03/15 04:47:42;;;;;;;10.98;5.70;;;;;;;;;;4938884;29;20038;-75
2022/03/15 04:50:12;;;;;;;9.52;5.90;;;;;;;;;;4957841;28;20038;-70
2022/03/15 04:52:38;;;;;;;9.18;5.97;;;;;;;;;;4939488;29;20051;-69
2022/03/15 04:55:07;;;;;;;12.20;7.22;;;;;;;;;;4959605;28;20442;-69
2022/03/15 04:57:33;;;;;;;14.73;7.53;;;;;;;;;;4967802;29;20031;-68
2022/03/15 05:00:37;;;;;;;14.60;6.70;;;;;;;;;;4964996;28;20042;-70
2022/03/15 05:03:03;;;;;;;10.55;6.15;;;;;;;;;;4917406;29;20083;-69
2022/03/15 05:05:29;;;;;;;12.90;5.90;;;;;;;;;;4888829;29;20491;-73
2022/03/15 05:07:57;;;;;;;9.13;6.18;;;;;;;;;;4895184;29;20052;-73
2022/03/15 05:13:08;;;;;;;9.15;5.47;;;;;;;;;;4894871;29;20153;-73
2022/03/15 05:15:34;;;;;;;11.10;6.22;;;;;;;;;;4909066;29;20052;-73
2022/03/15 05:18:04;;;;;;;9.48;6.22;;;;;;;;;;4906330;29;20048;-74
2022/03/15 05:20:30;;;;;;;13.20;6.47;;;;;;;;;;4900173;29;20044;-74
2022/03/15 05:22:59;;;;;;;13.07;6.18;;;;;;;;;;4902727;29;20504;-73
2022/03/15 05:25:25;;;;;;;12.80;6.18;;;;;;;;;;4902585;29;20036;-77
2022/03/15 05:27:51;;;;;;;11.95;6.60;;;;;;;;;;4906311;29;20479;-74
2022/03/15 05:30:17;;;;;;;10.18;5.93;;;;;;;;;;4908270;29;20028;-71
2022/03/15 05:32:54;;;;;;;13.85;6.15;;;;;;;;;;4911940;29;20046;-71
2022/03/15 05:35:21;;;;;;;11.85;6.85;;;;;;;;;;4902031;29;20048;-71
2022/03/15 05:37:50;;;;;;;9.95;6.22;;;;;;;;;;4957208;29;20046;-71
2022/03/15 05:40:25;;;;;;;12.93;7.28;;;;;;;;;;4965480;29;20035;-72
2022/03/15 05:42:54;;;;;;;11.48;6.45;;;;;;;;;;4965337;28;20382;-74
2022/03/15 05:45:20;;;;;;;10.80;6.75;;;;;;;;;;4957389;28;20471;-74
2022/03/15 05:47:46;;;;;;;12.70;7.07;;;;;;;;;;4956107;29;20058;-75
2022/03/15 05:50:12;;;;;;;20.65;6.70;;;;;;;;;;4955796;29;20031;-75
2022/03/15 05:52:38;;;;;;;21.63;9.55;;;;;;;;;;4957293;28;20046;-74
2022/03/15 05:55:07;;;;;;;23.08;8.45;;;;;;;;;;4958486;29;20035;-73
2022/03/15 05:57:33;;;;;;;19.60;9.50;;;;;;;;;;4959165;29;20023;-74
2022/03/15 05:59:59;;;;;;;23.90;10.88;;;;;;;;;;4959096;29;20031;-74
2022/03/15 06:02:25;;;;;;;13.45;7.70;;;;;;;;;;4944728;29;20035;-74
2022/03/15 06:04:52;;;;;;;15.90;8.50;;;;;;;;;;4942724;29;20051;-77
2022/03/15 06:07:18;;;;;;;14.73;8.32;;;;;;;;;;4957487;29;20511;-72
2022/03/15 06:09:44;;;;;;;15.90;8.10;;;;;;;;;;4950217;29;20102;-72
2022/03/15 06:12:11;;;;;;;16.77;8.00;;;;;;;;;;4954664;28;20023;-73
2022/03/15 06:14:37;;;;;;;19.83;9.15;;;;;;;;;;4955108;29;20019;-74
2022/03/15 06:17:05;;;;;;;29.00;13.88;;;;;;;;;;4953942;29;20031;-74
2022/03/15 06:19:31;;;;;;;28.70;14.20;;;;;;;;;;4948506;29;20047;-74
2022/03/15 06:21:57;;;;;;;36.63;14.38;;;;;;;;;;4954160;29;20106;-75
2022/03/15 06:24:26;;;;;;;25.48;16.38;;;;;;;;;;4953380;29;20039;-74
2022/03/15 06:26:52;;;;;;;36.10;21.00;;;;;;;;;;4953620;28;20016;-76
2022/03/15 06:29:18;;;;;;;44.28;27.48;;;;;;;;;;4954287;29;20106;-75
2022/03/15 06:31:47;;;;;;;45.60;24.13;;;;;;;;;;4953284;28;20027;-79
2022/03/15 06:34:13;;;;;;;50.05;18.23;;;;;;;;;;4953334;29;20039;-73
2022/03/15 06:36:41;;;;;;;46.72;20.50;;;;;;;;;;4953917;29;20031;-72
2022/03/15 06:39:07;;;;;;;33.25;16.58;;;;;;;;;;4950225;29;20057;-74
2022/03/15 06:41:39;;;;;;;43.92;15.27;;;;;;;;;;4948817;28;20023;-82
2022/03/15 06:44:06;;;;;;;38.33;14.20;;;;;;;;;;4953922;28;20027;-75
2022/03/15 06:46:32;;;;;;;28.42;12.27;;;;;;;;;;4952995;29;20023;-83
2022/03/15 06:48:59;;;;;;;44.00;21.67;;;;;;;;;;4933828;29;20138;-73
2022/03/15 06:51:25;;;;;;;41.72;20.63;;;;;;;;;;4935468;29;20182;-79
2022/03/15 06:53:52;;;;;;;38.25;16.60;;;;;;;;;;4952814;29;20381;-80
2022/03/15 06:56:18;;;;;;;31.70;13.90;;;;;;;;;;4953614;29;20031;-83
2022/03/15 06:58:44;;;;;;;21.75;11.05;;;;;;;;;;4952199;29;20035;-78
2022/03/15 07:01:10;;;;;;;15.02;8.40;;;;;;;;;;4949919;29;20031;-76
2022/03/15 07:03:39;;;;;;;18.38;8.25;;;;;;;;;;4951819;28;20023;-79
2022/03/15 07:06:05;;;;;;;25.15;16.17;;;;;;;;;;4952462;28;20132;-78
2022/03/15 07:08:31;;;;;;;21.33;12.65;;;;;;;;;;4950528;29;20151;-77
2022/03/15 07:11:01;;;;;;;21.88;13.55;;;;;;;;;;4951061;29;20027;-78
2022/03/15 07:13:30;;;;;;;24.10;17.95;;;;;;;;;;4943300;29;20031;-79
2022/03/15 07:15:56;;;;;;;27.58;18.13;;;;;;;;;;4939052;29;20090;-75
2022/03/15 07:18:22;;;;;;;27.52;15.00;;;;;;;;;;4937348;29;20047;-89
2022/03/15 07:20:49;;;;;;;30.27;16.13;;;;;;;;;;4953292;29;20027;-81
2022/03/15 07:23:17;;;;;;;21.30;15.40;;;;;;;;;;4955262;28;20061;-73
2022/03/15 07:25:43;;;;;;;24.15;16.40;;;;;;;;;;4943014;29;20035;-73
2022/03/15 07:28:09;;;;;;;21.30;13.95;;;;;;;;;;4939721;29;20043;-74
2022/03/15 07:30:39;;;;;;;23.80;15.55;;;;;;;;;;4955260;29;20106;-82
2022/03/15 07:33:05;;;;;;;24.23;13.15;;;;;;;;;;4955879;28;20468;-75
2022/03/15 07:35:31;;;;;;;21.58;13.25;;;;;;;;;;4955446;29;20031;-76
2022/03/15 07:37:58;;;;;;;22.55;13.68;;;;;;;;;;4955613;28;20122;-75
2022/03/15 07:40:26;;;;;;;17.25;11.80;;;;;;;;;;4953876;29;20035;-78
2022/03/15 07:42:52;;;;;;;20.40;12.75;;;;;;;;;;4936900;29;20035;-75
2022/03/15 07:45:19;;;;;;;20.13;13.18;;;;;;;;;;4957991;28;20061;-76
2022/03/15 07:47:47;;;;;;;21.25;13.65;;;;;;;;;;4955616;29;20384;-74
2022/03/15 07:50:13;;;;;;;23.13;14.50;;;;;;;;;;4955330;28;20031;-80
2022/03/15 07:52:40;;;;;;;20.23;13.60;;;;;;;;;;4955049;29;20047;-83
2022/03/15 07:55:06;;;;;;;22.17;13.80;;;;;;;;;;4944293;29;20035;-81
2022/03/15 07:57:32;;;;;;;20.63;14.27;;;;;;;;;;4953972;28;20031;-75
2022/03/15 07:59:58;;;;;;;19.30;13.60;;;;;;;;;;4947325;29;20074;-73
2022/03/15 08:02:25;;;;;;;20.05;13.68;;;;;;;;;;4953118;29;20114;-72
2022/03/15 08:04:53;;;;;;;19.55;12.35;;;;;;;;;;4936567;29;20027;-73
2022/03/15 08:07:21;;;;;;;17.42;10.98;;;;;;;;;;4955628;28;20031;-74
2022/03/15 08:09:47;;;;;;;15.23;10.90;;;;;;;;;;4947497;29;20118;-87
2022/03/15 08:12:13;;;;;;;16.77;10.88;;;;;;;;;;4938983;29;20043;-81
2022/03/15 08:14:40;;;;;;;15.18;10.60;;;;;;;;;;4938966;29;20023;-85
2022/03/15 08:17:07;;;;;;;20.45;12.00;;;;;;;;;;4946415;29;20035;-81
2022/03/15 08:19:33;;;;;;;16.83;10.77;;;;;;;;;;4939419;28;20047;-83
2022/03/15 08:22:02;;;;;;;18.75;11.48;;;;;;;;;;4955784;29;20030;-81
2022/03/15 08:24:28;;;;;;;19.30;10.70;;;;;;;;;;4937463;29;20374;-76
2022/03/15 08:26:55;;;;;;;17.63;9.82;;;;;;;;;;4943808;29;20034;-73
2022/03/15 08:29:21;;;;;;;24.95;9.73;;;;;;;;;;4955594;28;20082;-75
2022/03/15 08:31:47;;;;;;;14.38;9.25;;;;;;;;;;4938957;29;20450;-72
2022/03/15 08:34:13;;;;;;;16.17;8.23;;;;;;;;;;4955228;29;20057;-72
2022/03/15 08:36:39;;;;;;;13.98;7.82;;;;;;;;;;4953868;28;20074;-74
2022/03/15 08:39:05;;;;;;;11.15;7.78;;;;;;;;;;4955131;29;20036;-72
2022/03/15 08:41:31;;;;;;;9.70;7.60;;;;;;;;;;4954375;29;20082;-81
2022/03/15 08:43:58;;;;;;;14.02;7.65;;;;;;;;;;4957460;28;20035;-86
2022/03/15 08:46:24;;;;;;;13.60;7.50;;;;;;;;;;4941759;29;20081;-80
2022/03/15 08:48:50;;;;;;;19.67;8.77;;;;;;;;;;4933647;29;20059;-81
2022/03/15 08:51:16;;;;;;;12.10;8.38;;;;;;;;;;4954558;28;20035;-78
2022/03/15 08:53:42;;;;;;;15.50;8.50;;;;;;;;;;4938445;29;20436;-78
2022/03/15 08:56:08;;;;;;;13.90;8.25;;;;;;;;;;4954425;29;20020;-75
2022/03/15 08:58:34;;;;;;;14.23;8.30;;;;;;;;;;4952197;29;20489;-81
2022/03/15 09:01:01;;;;;;;10.07;6.90;;;;;;;;;;4953022;28;20102;-77
2022/03/15 09:03:27;;;;;;;10.80;7.43;;;;;;;;;;4952473;29;20030;-87
2022/03/15 09:05:53;;;;;;;14.77;7.88;;;;;;;;;;4953524;28;20028;-79
2022/03/15 09:08:22;;;;;;;17.10;8.25;;;;;;;;;;4956357;28;20023;-75
2022/03/15 09:10:48;;;;;;;15.20;7.95;;;;;;;;;;4960267;28;20035;-76
2022/03/15 09:13:15;;;;;;;15.32;7.30;;;;;;;;;;4948155;29;20030;-76
2022/03/15 09:15:41;;;;;;;15.13;6.70;;;;;;;;;;4959255;29;20468;-76
2022/03/15 09:18:07;;;;;;;12.95;8.20;;;;;;;;;;4958184;28;20078;-76
2022/03/15 09:20:58;;;;;;;13.30;7.78;;;;;;;;;;4968004;28;20035;-76
2022/03/15 09:23:51;;;;;;;12.52;7.72;;;;;;;;;;4975311;28;20527;-76
2022/03/15 09:26:33;;;;;;;12.80;7.05;;;;;;;;;;4965968;28;20024;-77
2022/03/15 09:29:00;;;;;;;10.75;7.20;;;;;;;;;;4950338;29;20035;-76
2022/03/15 09:31:26;;;;;;;17.10;7.78;;;;;;;;;;4962321;28;20031;-76
2022/03/15 09:33:57;;;;;;;22.52;8.02;;;;;;;;;;4963937;28;20397;-79
2022/03/15 09:36:30;;;;;;;16.58;8.07;;;;;;;;;;4958652;29;20113;-72
2022/03/15 09:39:16;;;;;;;11.23;7.38;;;;;;;;;;4973462;29;20019;-72
2022/03/15 09:41:55;;;;;;;14.30;8.70;;;;;;;;;;4924106;29;20065;-70
2022/03/15 09:44:28;;;;;;;13.15;8.02;;;;;;;;;;4936529;29;20416;-72
2022/03/15 09:47:04;;;;;;;14.10;8.23;;;;;;;;;;4964944;28;20023;-72
2022/03/15 09:49:34;;;;;;;10.93;7.75;;;;;;;;;;4942477;29;20293;-77
2022/03/15 09:52:00;;;;;;;14.20;8.50;;;;;;;;;;4937040;29;20047;-75
2022/03/15 09:54:29;;;;;;;13.07;7.82;;;;;;;;;;4940382;29;20114;-75
2022/03/15 09:56:56;;;;;;;11.88;8.20;;;;;;;;;;4935135;29;20039;-75
2022/03/15 09:59:23;;;;;;;17.75;9.48;;;;;;;;;;4940639;29;20059;-75
2022/03/15 10:01:54;;;;;;;17.23;9.43;;;;;;;;;;4937171;29;20035;-75
2022/03/15 10:04:23;;;;;;;16.35;8.35;;;;;;;;;;4934860;29;20031;-74
2022/03/15 10:06:51;;;;;;;13.30;8.88;;;;;;;;;;4936697;29;20023;-73
2022/03/15 10:09:22;;;;;;;15.60;9.60;;;;;;;;;;4938184;29;20450;-74
2022/03/15 10:11:50;;;;;;;14.15;8.00;;;;;;;;;;4936553;29;20020;-73
2022/03/15 10:14:19;;;;;;;11.82;7.47;;;;;;;;;;4932548;29;20055;-74
2022/03/15 10:19:58;;;;;;;28.45;8.75;;;;;;;;;;4906767;29;20056;-76
2022/03/15 10:22:25;;;;;;;19.48;8.73;;;;;;;;;;4897191;29;20132;-72
2022/03/15 10:24:55;;;;;;;15.10;8.52;;;;;;;;;;4901511;29;20036;-76
2022/03/15 10:27:21;;;;;;;14.57;8.32;;;;;;;;;;4901371;29;20028;-76
2022/03/15 10:29:50;;;;;;;12.20;7.78;;;;;;;;;;4900026;29;20040;-77
2022/03/15 10:32:17;;;;;;;13.50;8.10;;;;;;;;;;4902999;29;20081;-76
2022/03/15 10:34:51;;;;;;;15.45;8.85;;;;;;;;;;4904426;29;20032;-76
2022/03/15 10:37:18;;;;;;;12.25;8.15;;;;;;;;;;4906241;29;20037;-75
2022/03/15 10:39:47;;;;;;;14.68;8.02;;;;;;;;;;4911100;29;20048;-75
2022/03/15 10:42:14;;;;;;;15.48;8.35;;;;;;;;;;4918205;29;20037;-74
2022/03/15 10:44:40;;;;;;;12.32;8.15;;;;;;;;;;4905505;29;20045;-72
2022/03/15 10:47:11;;;;;;;11.20;7.53;;;;;;;;;;4908061;29;20111;-74
2022/03/15 10:49:47;;;;;;;15.48;8.30;;;;;;;;;;4903450;29;20048;-75
2022/03/15 10:52:13;;;;;;;14.25;8.20;;;;;;;;;;4903504;29;20144;-75
2022/03/15 10:54:40;;;;;;;15.68;8.43;;;;;;;;;;4903086;29;20038;-73
2022/03/15 10:57:12;;;;;;;14.20;7.75;;;;;;;;;;4936619;29;20036;-74
2022/03/15 10:59:41;;;;;;;13.93;7.88;;;;;;;;;;4941500;29;20020;-77
2022/03/15 11:02:32;;;;;;;14.20;7.78;;;;;;;;;;4935120;29;20038;-74
2022/03/15 11:04:58;;;;;;;13.38;8.07;;;;;;;;;;4942626;28;20039;-73
2022/03/15 11:07:39;;;;;;;13.52;7.90;;;;;;;;;;4933348;29;20031;-75
2022/03/15 11:10:10;;;;;;;12.25;7.70;;;;;;;;;;4934116;29;20500;-73
2022/03/15 11:12:43;;;;;;;12.70;7.90;;;;;;;;;;4934230;29;20032;-74
2022/03/15 11:15:10;;;;;;;16.67;9.00;;;;;;;;;;4934060;29;20062;-73
2022/03/15 11:17:38;;;;;;;13.70;8.27;;;;;;;;;;4933701;29;20020;-74
2022/03/15 11:20:07;;;;;;;17.95;7.90;;;;;;;;;;4931891;29;20142;-72
2022/03/15 11:22:37;;;;;;;14.40;8.43;;;;;;;;;;4934709;29;20032;-73
2022/03/15 11:25:07;;;;;;;15.18;7.80;;;;;;;;;;4936708;29;20040;-73
2022/03/15 11:27:34;;;;;;;12.18;8.05;;;;;;;;;;4934072;29;20031;-74
2022/03/15 11:30:02;;;;;;;15.77;8.15;;;;;;;;;;4934435;29;20039;-75
2022/03/15 11:32:38;;;;;;;14.18;8.15;;;;;;;;;;4929578;29;20469;-73
2022/03/15 11:35:08;;;;;;;31.38;8.73;;;;;;;;;;4933802;29;20087;-73
2022/03/15 11:37:35;;;;;;;12.88;7.32;;;;;;;;;;4927361;29;22083;-73
2022/03/15 11:40:04;;;;;;;12.23;8.18;;;;;;;;;;4915674;29;20134;-74
2022/03/15 11:42:32;;;;;;;18.58;8.63;;;;;;;;;;4935503;29;20028;-75
2022/03/15 11:45:17;;;;;;;12.88;7.68;;;;;;;;;;4934002;29;20120;-74
2022/03/15 11:47:52;;;;;;;16.27;8.55;;;;;;;;;;4932028;29;20044;-75
2022/03/15 11:50:27;;;;;;;12.07;8.10;;;;;;;;;;4932650;29;20035;-73
2022/03/15 11:53:16;;;;;;;11.85;7.75;;;;;;;;;;4954575;29;20055;-75
2022/03/15 11:56:00;;;;;;;14.68;7.82;;;;;;;;;;4951882;29;20091;-76
2022/03/15 11:58:27;;;;;;;11.13;7.90;;;;;;;;;;4939975;29;20457;-74
2022/03/15 12:00:54;;;;;;;12.07;8.27;;;;;;;;;;4954310;29;20042;-75
2022/03/15 12:03:23;;;;;;;10.00;7.63;;;;;;;;;;4957587;28;20038;-74
2022/03/15 12:05:49;;;;;;;15.45;8.02;;;;;;;;;;4957526;29;20097;-74
2022/03/15 12:08:26;;;;;;;14.60;7.95;;;;;;;;;;4958533;29;20469;-73
2022/03/15 12:11:01;;;;;;;12.90;8.07;;;;;;;;;;4962469;28;20030;-72
2022/03/15 12:13:37;;;;;;;18.50;8.00;;;;;;;;;;4958122;29;20078;-72
2022/03/15 12:16:13;;;;;;;28.02;9.27;;;;;;;;;;4955677;28;20033;-74
2022/03/15 12:18:53;;;;;;;11.70;8.10;;;;;;;;;;4954427;28;20031;-74
2022/03/15 12:21:21;;;;;;;15.82;8.63;;;;;;;;;;4958283;29;20032;-73
2022/03/15 12:23:50;;;;;;;14.95;8.35;;;;;;;;;;4950203;28;20146;-73
2022/03/15 12:26:27;;;;;;;11.65;7.88;;;;;;;;;;4940482;29;20043;-73
2022/03/15 12:28:56;;;;;;;11.88;7.68;;;;;;;;;;4953767;28;20079;-73
2022/03/15 12:31:32;;;;;;;15.00;8.70;;;;;;;;;;4953920;28;20106;-75
2022/03/15 12:34:02;;;;;;;14.38;9.45;;;;;;;;;;4948011;29;20481;-77
2022/03/15 12:36:36;;;;;;;16.08;9.45;;;;;;;;;;4947721;28;20043;-74
2022/03/15 12:39:09;;;;;;;13.45;7.90;;;;;;;;;;4953392;29;20028;-73
2022/03/15 12:41:36;;;;;;;12.55;7.40;;;;;;;;;;4958663;29;20040;-73
2022/03/15 12:44:08;;;;;;;12.43;8.52;;;;;;;;;;4958066;28;20032;-74
2022/03/15 12:46:36;;;;;;;13.18;7.70;;;;;;;;;;4955607;28;20425;-75
2022/03/15 12:49:06;;;;;;;15.90;8.13;;;;;;;;;;4949957;28;20035;-73
2022/03/15 12:51:37;;;;;;;11.73;8.05;;;;;;;;;;4954736;29;20189;-76
2022/03/15 12:54:12;;;;;;;12.38;7.22;;;;;;;;;;4948374;29;20536;-74
2022/03/15 12:56:43;;;;;;;11.02;7.70;;;;;;;;;;4958275;29;20075;-76
2022/03/15 12:59:16;;;;;;;12.20;7.85;;;;;;;;;;4958713;29;20038;-76
2022/03/15 13:01:46;;;;;;;11.97;7.33;;;;;;;;;;4956396;28;20027;-72
2022/03/15 13:04:13;;;;;;;20.58;9.13;;;;;;;;;;4957866;29;20360;-72
2022/03/15 13:06:44;;;;;;;14.13;7.10;;;;;;;;;;4958732;29;20439;-76
2022/03/15 13:09:11;;;;;;;18.92;11.65;;;;;;;;;;4959273;29;20027;-74
2022/03/15 13:11:47;;;;;;;15.45;9.60;;;;;;;;;;4953031;29;20679;-76
2022/03/15 13:14:13;;;;;;;23.77;8.38;;;;;;;;;;4956927;29;20031;-72
2022/03/15 13:16:46;;;;;;;18.17;10.50;;;;;;;;;;4957696;28;20081;-75
2022/03/15 13:19:25;;;;;;;15.23;9.40;;;;;;;;;;4956940;28;20511;-77
2022/03/15 13:21:51;;;;;;;11.93;7.57;;;;;;;;;;4957285;28;20536;-76
2022/03/15 13:24:22;;;;;;;15.77;7.95;;;;;;;;;;4952677;29;20063;-73
2022/03/15 13:26:49;;;;;;;14.75;8.52;;;;;;;;;;4951518;29;20019;-72
2022/03/15 13:29:15;;;;;;;13.27;8.98;;;;;;;;;;4955424;29;20031;-74
2022/03/15 13:31:41;;;;;;;12.85;7.93;;;;;;;;;;4959237;29;20091;-71
2022/03/15 13:34:13;;;;;;;12.25;7.68;;;;;;;;;;4967952;29;20024;-72
2022/03/15 13:36:45;;;;;;;13.13;7.80;;;;;;;;;;4971960;28;20106;-73
2022/03/15 13:39:12;;;;;;;16.08;8.77;;;;;;;;;;4953119;29;20515;-72
2022/03/15 13:41:42;;;;;;;14.05;8.30;;;;;;;;;;4969061;29;20039;-74
2022/03/15 13:44:20;;;;;;;17.85;8.30;;;;;;;;;;4968835;28;20023;-72
2022/03/15 13:46:47;;;;;;;12.80;7.40;;;;;;;;;;4960320;29;20035;-72
2022/03/15 13:49:30;;;;;;;13.32;8.63;;;;;;;;;;4959915;29;20035;-72
2022/03/15 13:52:04;;;;;;;13.63;8.65;;;;;;;;;;4959473;29;20078;-71
2022/03/15 13:54:31;;;;;;;12.77;8.60;;;;;;;;;;4964906;29;20024;-71
2022/03/15 13:56:58;;;;;;;16.83;8.00;;;;;;;;;;4966027;29;20067;-73
2022/03/15 13:59:27;;;;;;;15.13;8.15;;;;;;;;;;4948024;29;20066;-72
2022/03/15 14:02:01;;;;;;;11.52;8.38;;;;;;;;;;4959159;29;20091;-72
2022/03/15 14:04:29;;;;;;;14.48;8.48;;;;;;;;;;4963424;29;20016;-72
2022/03/15 14:06:59;;;;;;;17.05;7.88;;;;;;;;;;4960568;29;20023;-72
2022/03/15 14:09:26;;;;;;;14.70;8.57;;;;;;;;;;4961306;28;20035;-74
2022/03/15 14:12:14;;;;;;;16.13;8.25;;;;;;;;;;4971173;29;20023;-71
2022/03/15 14:14:52;;;;;;;14.80;8.27;;;;;;;;;;4967189;29;20043;-72
2022/03/15 14:17:22;;;;;;;22.15;8.38;;;;;;;;;;4967740;28;20082;-74
2022/03/15 14:19:51;;;;;;;12.93;8.38;;;;;;;;;;4959214;29;20500;-73
2022/03/15 14:22:23;;;;;;;17.80;8.60;;;;;;;;;;4953764;29;20039;-72
2022/03/15 14:25:00;;;;;;;15.10;7.63;;;;;;;;;;4962554;29;20489;-73
2022/03/15 14:27:27;;;;;;;13.98;8.02;;;;;;;;;;4959885;29;20035;-73
2022/03/15 14:29:54;;;;;;;14.75;8.85;;;;;;;;;;4945530;28;20404;-74
2022/03/15 14:32:21;;;;;;;12.90;8.35;;;;;;;;;;4954365;28;20511;-73
2022/03/15 14:35:06;;;;;;;14.20;10.15;;;;;;;;;;4948422;29;20059;-74
2022/03/15 14:37:34;;;;;;;15.35;8.48;;;;;;;;;;4968628;28;20070;-73
2022/03/15 14:40:12;;;;;;;11.50;8.10;;;;;;;;;;4955505;28;20497;-73